Time;durP1;ratioP1;P1;durP2;ratioP2;P2;SDS_P1;SDS_P2;PMS_P1;PMS_P2;Temp;Humidity;BMP_temperature;BMP_pressure;BME280_temperature;BME280_humidity;BME280_pressure;Samples;Min_cycle;Max_cycle;Signal;HPM_P1;HPM_P2
2022/12/05 00:01:41;;;;;;;180.80;59.58;;;4.90;99.90;;;;;;5080065;28;20035;-57
2022/12/05 00:04:11;;;;;;;121.15;45.72;;;4.90;99.90;;;;;;5073169;28;20071;-59
2022/12/05 00:06:38;;;;;;;128.40;40.65;;;4.90;99.90;;;;;;5078309;28;20566;-59
2022/12/05 00:09:06;;;;;;;72.60;27.65;;;4.90;99.90;;;;;;5078185;28;20036;-59
2022/12/05 00:11:35;;;;;;;75.32;25.92;;;4.80;99.90;;;;;;5078140;28;20495;-58
2022/12/05 00:14:02;;;;;;;60.63;27.00;;;4.80;99.90;;;;;;5078541;28;20043;-58
2022/12/05 00:16:30;;;;;;;78.50;27.58;;;4.70;99.90;;;;;;5075832;28;20092;-60
2022/12/05 00:18:59;;;;;;;95.65;28.27;;;4.70;99.90;;;;;;5076554;28;20008;-60
2022/12/05 00:21:29;;;;;;;83.40;27.23;;;4.70;99.90;;;;;;5078408;28;20032;-58
2022/12/05 00:23:56;;;;;;;89.53;28.00;;;4.70;99.90;;;;;;5077533;28;20102;-57
2022/12/05 00:26:22;;;;;;;62.53;25.48;;;4.70;99.90;;;;;;5079078;28;20033;-60
2022/12/05 00:28:49;;;;;;;74.85;28.63;;;4.70;99.90;;;;;;5076843;28;20032;-60
2022/12/05 00:31:20;;;;;;;55.70;27.17;;;4.70;99.90;;;;;;5078861;28;20995;-56
2022/12/05 00:33:47;;;;;;;68.30;26.02;;;4.60;99.90;;;;;;5078329;28;20041;-58
2022/12/05 00:36:22;;;;;;;60.45;26.73;;;4.60;99.90;;;;;;5079605;28;20036;-59
2022/12/05 00:38:48;;;;;;;78.95;29.30;;;4.60;99.90;;;;;;5082750;28;20024;-58
2022/12/05 00:41:19;;;;;;;99.07;29.23;;;4.60;99.90;;;;;;5079332;28;20769;-58
2022/12/05 00:43:45;;;;;;;126.30;29.90;;;4.60;99.90;;;;;;5074853;28;20040;-58
2022/12/05 00:46:13;;;;;;;83.95;27.05;;;4.70;99.90;;;;;;5080162;28;20020;-59
2022/12/05 00:48:39;;;;;;;107.90;27.08;;;4.70;99.90;;;;;;5079179;28;20077;-59
2022/12/05 00:51:08;;;;;;;46.78;23.45;;;4.70;99.90;;;;;;5080942;28;20024;-59
2022/12/05 00:53:34;;;;;;;65.35;22.88;;;4.80;99.90;;;;;;5081081;28;20056;-57
2022/12/05 00:56:04;;;;;;;66.75;23.27;;;4.80;99.90;;;;;;5077808;28;20044;-57
2022/12/05 00:58:31;;;;;;;64.72;23.30;;;4.70;99.90;;;;;;5076660;28;20167;-58
2022/12/05 01:00:57;;;;;;;68.00;24.27;;;4.70;99.90;;;;;;5075521;28;20476;-58
2022/12/05 01:03:23;;;;;;;67.60;23.80;;;4.70;99.90;;;;;;5059367;28;20028;-58
2022/12/05 01:05:48;;;;;;;57.78;23.55;;;4.70;99.90;;;;;;5056757;28;20119;-60
2022/12/05 01:08:14;;;;;;;47.60;22.83;;;4.70;99.90;;;;;;5079649;28;20089;-59
2022/12/05 01:10:39;;;;;;;65.55;24.30;;;4.70;99.90;;;;;;5078187;28;20040;-58
2022/12/05 01:13:05;;;;;;;72.50;22.30;;;4.70;99.90;;;;;;5077158;28;20048;-58
2022/12/05 01:15:34;;;;;;;75.20;24.27;;;4.70;99.90;;;;;;5076583;28;20063;-58
2022/12/05 01:18:00;;;;;;;89.03;28.80;;;4.70;99.90;;;;;;5076493;28;20505;-59
2022/12/05 01:20:26;;;;;;;113.35;31.40;;;4.80;99.90;;;;;;5077023;28;20081;-57
2022/12/05 01:22:51;;;;;;;94.28;30.33;;;4.80;99.90;;;;;;5078209;28;20032;-58
2022/12/05 01:25:17;;;;;;;48.80;25.58;;;4.80;99.90;;;;;;5077951;28;20028;-58
2022/12/05 01:27:42;;;;;;;45.63;24.45;;;4.70;99.90;;;;;;5077494;28;20086;-58
2022/12/05 01:30:08;;;;;;;48.95;24.85;;;4.70;99.90;;;;;;5076140;28;20496;-57
2022/12/05 01:32:34;;;;;;;40.88;23.85;;;4.70;99.90;;;;;;5076241;28;20029;-58
2022/12/05 01:35:00;;;;;;;55.63;24.58;;;4.70;99.90;;;;;;5075540;28;20045;-58
2022/12/05 01:37:25;;;;;;;45.92;24.90;;;4.70;99.90;;;;;;5077163;28;20052;-58
2022/12/05 01:39:51;;;;;;;40.95;23.10;;;4.70;99.90;;;;;;5074918;28;20032;-61
2022/12/05 01:42:16;;;;;;;43.92;21.60;;;4.70;99.90;;;;;;5077229;28;20070;-59
2022/12/05 01:44:42;;;;;;;46.08;23.63;;;4.60;99.90;;;;;;5075737;28;20028;-57
2022/12/05 01:47:07;;;;;;;47.13;22.48;;;4.60;99.90;;;;;;5077810;28;20530;-59
2022/12/05 01:49:38;;;;;;;41.80;21.33;;;4.60;99.90;;;;;;5075050;28;20514;-58
2022/12/05 01:52:09;;;;;;;42.15;22.65;;;4.60;99.90;;;;;;5081515;28;20019;-57
2022/12/05 01:54:36;;;;;;;43.35;21.67;;;4.60;99.90;;;;;;5095440;28;20032;-58
2022/12/05 01:57:07;;;;;;;47.35;22.92;;;4.50;99.90;;;;;;5077259;28;20036;-59
2022/12/05 01:59:37;;;;;;;44.65;21.90;;;4.60;99.90;;;;;;5074923;28;20369;-57
2022/12/05 02:02:04;;;;;;;44.15;23.05;;;4.50;99.90;;;;;;5078660;28;20033;-57
2022/12/05 02:04:30;;;;;;;44.35;23.30;;;4.60;99.90;;;;;;5077481;28;20069;-57
2022/12/05 02:06:56;;;;;;;35.63;21.23;;;4.50;99.90;;;;;;5077900;28;20028;-58
2022/12/05 02:09:22;;;;;;;49.55;23.98;;;4.60;99.90;;;;;;5075397;28;20025;-60
2022/12/05 02:11:54;;;;;;;50.40;23.35;;;4.60;99.90;;;;;;5082646;28;20025;-57
2022/12/05 02:14:50;;;;;;;55.72;23.50;;;4.60;99.90;;;;;;5077616;28;20504;-59
2022/12/05 02:17:47;;;;;;;50.30;23.15;;;4.60;99.90;;;;;;5078967;28;20040;-59
2022/12/05 02:20:31;;;;;;;72.32;25.05;;;4.60;99.90;;;;;;5079671;28;20138;-59
2022/12/05 02:23:20;;;;;;;59.95;25.60;;;4.70;99.90;;;;;;5078152;28;20077;-58
2022/12/05 02:26:13;;;;;;;61.33;25.13;;;4.70;99.90;;;;;;5074498;28;20036;-58
2022/12/05 02:28:50;;;;;;;74.90;23.98;;;4.70;99.90;;;;;;5080756;28;20020;-58
2022/12/05 02:31:27;;;;;;;52.78;23.70;;;4.70;99.90;;;;;;5081725;28;20028;-58
2022/12/05 02:33:57;;;;;;;55.22;22.75;;;4.70;99.90;;;;;;5067430;28;20052;-58
2022/12/05 02:37:04;;;;;;;54.92;23.23;;;4.60;99.90;;;;;;5079352;28;20043;-59
2022/12/05 02:39:55;;;;;;;55.83;21.48;;;4.60;99.90;;;;;;5080187;28;20027;-58
2022/12/05 02:42:37;;;;;;;74.47;22.73;;;4.60;99.90;;;;;;5080797;28;20032;-58
2022/12/05 02:45:08;;;;;;;49.70;22.73;;;4.60;99.90;;;;;;5081240;28;20040;-58
2022/12/05 02:47:39;;;;;;;98.95;24.38;;;4.60;99.90;;;;;;5077473;28;20044;-58
2022/12/05 02:50:07;;;;;;;80.35;26.30;;;4.60;99.90;;;;;;5079605;28;20027;-59
2022/12/05 02:52:34;;;;;;;75.82;24.00;;;4.60;99.90;;;;;;5081759;28;20475;-59
2022/12/05 02:55:01;;;;;;;72.90;24.67;;;4.60;99.90;;;;;;5076207;28;20073;-59
2022/12/05 02:57:27;;;;;;;47.53;23.63;;;4.70;99.90;;;;;;5079106;28;20075;-59
2022/12/05 02:59:53;;;;;;;76.97;24.58;;;4.70;99.90;;;;;;5084295;28;20028;-58
2022/12/05 03:02:24;;;;;;;58.67;24.83;;;4.70;99.90;;;;;;5080886;28;20808;-58
2022/12/05 03:04:50;;;;;;;;;;;4.70;99.90;;;;;;5080448;28;20139;-60
2022/12/05 03:07:18;;;;;;;90.47;26.67;;;4.70;99.90;;;;;;5078890;28;20628;-59
2022/12/05 03:09:59;;;;;;;88.97;27.45;;;4.70;99.90;;;;;;5079179;28;20044;-58
2022/12/05 03:12:37;;;;;;;119.97;28.98;;;4.70;99.90;;;;;;5079678;28;20036;-59
2022/12/05 03:15:17;;;;;;;82.25;27.20;;;4.70;99.90;;;;;;5078426;28;20119;-58
2022/12/05 03:17:51;;;;;;;107.18;27.92;;;4.70;99.90;;;;;;5082856;28;20102;-58
2022/12/05 03:20:32;;;;;;;64.18;25.55;;;4.70;99.90;;;;;;5075662;28;20496;-58
2022/12/05 03:23:09;;;;;;;59.23;25.20;;;4.70;99.90;;;;;;5077598;28;20036;-59
2022/12/05 03:25:46;;;;;;;55.90;25.13;;;4.70;99.90;;;;;;5071985;28;20029;-58
2022/12/05 03:28:28;;;;;;;61.03;25.73;;;4.70;99.90;;;;;;5082679;28;20017;-60
2022/12/05 03:30:59;;;;;;;90.80;24.55;;;4.70;99.90;;;;;;5080829;28;20044;-59
2022/12/05 03:33:28;;;;;;;97.93;26.85;;;4.70;99.90;;;;;;5079535;28;20026;-59
2022/12/05 03:36:33;;;;;;;73.47;27.00;;;4.70;99.90;;;;;;5079763;28;20103;-59
2022/12/05 03:39:04;;;;;;;92.13;24.65;;;4.70;99.90;;;;;;5056213;28;20033;-59
2022/12/05 03:41:33;;;;;;;69.10;26.10;;;4.80;99.90;;;;;;5080185;28;20024;-58
2022/12/05 03:44:13;;;;;;;72.53;24.38;;;4.80;99.90;;;;;;5077976;28;20033;-59
2022/12/05 03:46:39;;;;;;;61.45;25.15;;;4.80;99.90;;;;;;5077507;28;20021;-58
2022/12/05 03:49:26;;;;;;;70.18;24.92;;;4.80;99.90;;;;;;5081157;28;20024;-58
2022/12/05 03:52:03;;;;;;;71.90;26.63;;;4.70;99.90;;;;;;5078767;28;20085;-58
2022/12/05 03:54:34;;;;;;;66.30;26.63;;;4.70;99.90;;;;;;5076801;28;20020;-58
2022/12/05 03:57:07;;;;;;;83.18;26.73;;;4.60;99.90;;;;;;5074543;28;20029;-59
2022/12/05 03:59:38;;;;;;;82.03;28.45;;;4.60;99.90;;;;;;5079815;28;20107;-58
2022/12/05 04:02:11;;;;;;;70.68;25.27;;;4.60;99.90;;;;;;5077966;28;20040;-58
2022/12/05 04:04:45;;;;;;;75.00;27.55;;;4.60;99.90;;;;;;5075381;28;20389;-58
2022/12/05 04:07:14;;;;;;;69.63;27.52;;;4.60;99.90;;;;;;5077840;28;20032;-58
2022/12/05 04:09:46;;;;;;;85.93;28.70;;;4.60;99.90;;;;;;5076049;28;20032;-59
2022/12/05 04:12:18;;;;;;;102.40;28.58;;;4.60;99.90;;;;;;5078870;28;20599;-60
2022/12/05 04:14:48;;;;;;;109.05;29.75;;;4.60;99.90;;;;;;5075521;28;20066;-58
2022/12/05 04:17:42;;;;;;;75.32;27.80;;;4.60;99.90;;;;;;5079191;28;20077;-57
2022/12/05 04:23:07;;;;;;;91.90;29.35;;;4.60;99.90;;;;;;5077966;28;20043;-58
2022/12/05 04:25:57;;;;;;;98.35;29.67;;;4.60;99.90;;;;;;5076003;28;20499;-58
2022/12/05 04:28:25;;;;;;;118.65;30.20;;;4.60;99.90;;;;;;5077666;28;20055;-58
2022/12/05 04:31:15;;;;;;;122.40;32.03;;;4.70;99.90;;;;;;5078341;28;20039;-60
2022/12/05 04:33:53;;;;;;;118.68;30.80;;;4.70;99.90;;;;;;5077298;28;20718;-59
2022/12/05 04:36:24;;;;;;;84.97;30.23;;;4.70;99.90;;;;;;5078006;28;20036;-59
2022/12/05 04:39:07;;;;;;;76.50;28.80;;;4.60;99.90;;;;;;5074486;28;20492;-58
2022/12/05 04:41:54;;;;;;;90.93;30.52;;;4.70;99.90;;;;;;5078795;28;20048;-59
2022/12/05 04:44:24;;;;;;;78.88;29.48;;;4.60;99.90;;;;;;5078608;28;20031;-58
2022/12/05 04:46:52;;;;;;;105.43;30.08;;;4.70;99.90;;;;;;5079650;28;20052;-59
2022/12/05 04:49:23;;;;;;;95.38;28.42;;;4.70;99.90;;;;;;5080100;28;20032;-59
2022/12/05 04:51:51;;;;;;;112.63;28.10;;;4.60;99.90;;;;;;5079456;28;20064;-59
2022/12/05 04:54:23;;;;;;;77.90;28.83;;;4.60;99.90;;;;;;5078395;28;20589;-59
2022/12/05 04:56:53;;;;;;;73.80;28.52;;;4.60;99.90;;;;;;5077697;28;20381;-58
2022/12/05 04:59:19;;;;;;;114.23;28.93;;;4.60;99.90;;;;;;5077720;28;20063;-59
2022/12/05 05:01:52;;;;;;;106.28;29.65;;;4.70;99.90;;;;;;5075470;28;20946;-58
2022/12/05 05:04:42;;;;;;;118.80;29.55;;;4.60;99.90;;;;;;5073229;28;20400;-59
2022/12/05 05:07:10;;;;;;;95.37;28.13;;;4.70;99.90;;;;;;5075797;28;20484;-59
2022/12/05 05:09:37;;;;;;;81.43;27.45;;;4.70;99.90;;;;;;5080341;28;20412;-60
2022/12/05 05:12:03;;;;;;;126.70;30.85;;;4.70;99.90;;;;;;5077113;28;20103;-59
2022/12/05 05:14:29;;;;;;;95.55;28.70;;;4.70;99.90;;;;;;5073821;28;20031;-60
2022/12/05 05:16:55;;;;;;;106.50;29.98;;;4.60;99.90;;;;;;5074624;28;20033;-59
2022/12/05 05:19:21;;;;;;;103.07;29.80;;;4.60;99.90;;;;;;5078302;28;20024;-59
2022/12/05 05:21:47;;;;;;;93.78;28.38;;;4.60;99.90;;;;;;5076341;28;20047;-59
2022/12/05 05:24:14;;;;;;;104.55;30.27;;;4.60;99.90;;;;;;5075823;28;20700;-59
2022/12/05 05:26:43;;;;;;;132.95;31.77;;;4.60;99.90;;;;;;5076219;28;20016;-59
2022/12/05 05:29:09;;;;;;;112.40;31.70;;;4.60;99.90;;;;;;5075027;28;20020;-59
2022/12/05 05:31:36;;;;;;;102.57;29.33;;;4.60;99.90;;;;;;5075845;28;20596;-59
2022/12/05 05:34:03;;;;;;;113.82;30.85;;;4.60;99.90;;;;;;5077276;28;20096;-57
2022/12/05 05:36:29;;;;;;;90.97;27.10;;;4.60;99.90;;;;;;5074686;28;20054;-59
2022/12/05 05:38:57;;;;;;;103.32;30.77;;;4.60;99.90;;;;;;5075208;28;20036;-58
2022/12/05 05:41:26;;;;;;;115.00;28.90;;;4.70;99.90;;;;;;5072728;28;20203;-59
2022/12/05 05:43:52;;;;;;;124.70;31.08;;;4.70;99.90;;;;;;5073744;28;20028;-59
2022/12/05 05:46:20;;;;;;;97.80;29.27;;;4.70;99.90;;;;;;5074567;28;20137;-59
2022/12/05 05:48:46;;;;;;;107.65;29.48;;;4.70;99.90;;;;;;5074117;28;20128;-58
2022/12/05 05:51:13;;;;;;;105.68;30.25;;;4.70;99.90;;;;;;5075252;28;20361;-59
2022/12/05 05:53:40;;;;;;;108.18;28.50;;;4.70;99.90;;;;;;5071017;28;20028;-60
2022/12/05 05:56:14;;;;;;;129.05;32.22;;;4.70;99.90;;;;;;5076338;28;20526;-58
2022/12/05 05:58:40;;;;;;;121.78;30.13;;;4.70;99.90;;;;;;5075385;28;20036;-59
2022/12/05 06:01:09;;;;;;;116.15;30.30;;;4.70;99.90;;;;;;5077308;28;20062;-59
2022/12/05 06:03:35;;;;;;;80.70;25.45;;;4.70;99.90;;;;;;5076449;28;20481;-58
2022/12/05 06:06:03;;;;;;;102.57;29.77;;;4.70;99.90;;;;;;5074158;28;20484;-58
2022/12/05 06:08:31;;;;;;;109.53;30.17;;;4.70;99.90;;;;;;5074852;28;20025;-59
2022/12/05 06:10:56;;;;;;;109.13;28.92;;;4.70;99.90;;;;;;5073839;28;20036;-59
2022/12/05 06:13:22;;;;;;;126.05;27.75;;;4.70;99.90;;;;;;5073687;28;20029;-58
2022/12/05 06:15:48;;;;;;;98.43;27.83;;;4.70;99.90;;;;;;5080285;28;20028;-60
2022/12/05 06:18:13;;;;;;;82.70;26.85;;;4.70;99.90;;;;;;5068893;28;20068;-57
2022/12/05 06:20:39;;;;;;;69.80;25.23;;;4.70;99.90;;;;;;5069908;28;20040;-59
2022/12/05 06:23:05;;;;;;;62.92;25.35;;;4.70;99.90;;;;;;5070589;28;20408;-58
2022/12/05 06:25:31;;;;;;;52.03;21.80;;;4.70;99.90;;;;;;5073545;28;20116;-58
2022/12/05 06:27:56;;;;;;;58.40;21.77;;;4.70;99.90;;;;;;5078186;28;20415;-58
2022/12/05 06:30:22;;;;;;;48.42;22.25;;;4.70;99.90;;;;;;5075907;28;20016;-58
2022/12/05 06:32:47;;;;;;;52.60;22.00;;;4.70;99.90;;;;;;5076476;28;20028;-60
2022/12/05 06:35:16;;;;;;;46.20;20.92;;;4.70;99.90;;;;;;5075811;28;20043;-58
2022/12/05 06:37:42;;;;;;;50.05;21.58;;;4.70;99.90;;;;;;5072903;28;20035;-58
2022/12/05 06:40:10;;;;;;;52.45;20.67;;;4.70;99.90;;;;;;5072837;28;20373;-59
2022/12/05 06:42:36;;;;;;;50.65;21.13;;;4.70;99.90;;;;;;5073235;28;20024;-58
2022/12/05 06:45:02;;;;;;;50.83;21.98;;;4.60;99.90;;;;;;5074497;28;20397;-58
2022/12/05 06:47:28;;;;;;;52.17;21.67;;;4.70;99.90;;;;;;5076836;28;20048;-58
2022/12/05 06:49:53;;;;;;;49.88;20.90;;;4.60;99.90;;;;;;5075730;28;20557;-59
2022/12/05 06:52:19;;;;;;;50.95;21.02;;;4.70;99.90;;;;;;5080655;28;20024;-57
2022/12/05 06:54:45;;;;;;;60.90;23.67;;;4.70;99.90;;;;;;5077817;28;20048;-59
2022/12/05 06:57:11;;;;;;;48.05;18.45;;;4.60;99.90;;;;;;5076802;28;20381;-58
2022/12/05 06:59:37;;;;;;;45.60;19.40;;;4.60;99.90;;;;;;5078123;28;20588;-58
2022/12/05 07:02:06;;;;;;;39.95;20.27;;;4.70;99.90;;;;;;5083899;28;20031;-59
2022/12/05 07:04:33;;;;;;;45.33;19.33;;;4.70;99.90;;;;;;5082134;28;20546;-58
2022/12/05 07:07:01;;;;;;;43.80;18.92;;;4.60;99.90;;;;;;5081556;28;20028;-59
2022/12/05 07:09:50;;;;;;;41.40;18.65;;;4.60;99.90;;;;;;5080110;28;20115;-58
2022/12/05 07:12:17;;;;;;;37.60;18.10;;;4.60;99.90;;;;;;5080379;28;20024;-58
2022/12/05 07:14:44;;;;;;;38.72;16.33;;;4.60;99.90;;;;;;5080532;28;20024;-59
2022/12/05 07:17:10;;;;;;;35.63;17.77;;;4.60;99.90;;;;;;5080353;28;20037;-59
2022/12/05 07:19:36;;;;;;;29.98;15.95;;;4.60;99.90;;;;;;5081526;28;20031;-57
2022/12/05 07:22:02;;;;;;;35.25;17.27;;;4.60;99.90;;;;;;5079874;28;20033;-59
2022/12/05 07:24:27;;;;;;;31.70;17.63;;;4.60;99.90;;;;;;5079536;28;20033;-59
2022/12/05 07:26:53;;;;;;;32.95;17.52;;;4.60;99.90;;;;;;5077994;28;20082;-58
2022/12/05 07:29:19;;;;;;;31.25;18.50;;;4.50;99.90;;;;;;5079310;28;20070;-59
2022/12/05 07:31:44;;;;;;;33.13;18.40;;;4.50;99.90;;;;;;5075538;28;20735;-56
2022/12/05 07:34:10;;;;;;;29.02;16.63;;;4.40;99.90;;;;;;5074406;28;20104;-59
2022/12/05 07:36:36;;;;;;;29.30;17.20;;;4.40;99.90;;;;;;5077650;28;20528;-57
2022/12/05 07:39:02;;;;;;;25.95;16.08;;;4.40;99.90;;;;;;5079250;28;20127;-59
2022/12/05 07:41:30;;;;;;;26.85;17.45;;;4.40;99.90;;;;;;5073836;28;20098;-58
2022/12/05 07:43:57;;;;;;;27.55;15.80;;;4.30;99.90;;;;;;5081548;28;20115;-58
2022/12/05 07:46:24;;;;;;;20.95;15.43;;;4.30;99.90;;;;;;5081227;28;20110;-59
2022/12/05 07:48:51;;;;;;;25.70;15.68;;;4.30;99.90;;;;;;5077908;28;20020;-59
2022/12/05 07:51:17;;;;;;;24.77;14.98;;;4.30;99.90;;;;;;5080815;28;20025;-58
2022/12/05 07:53:44;;;;;;;27.10;15.07;;;4.30;99.90;;;;;;5078013;28;20511;-58
2022/12/05 07:56:15;;;;;;;25.50;14.88;;;4.30;99.90;;;;;;5075137;28;20025;-60
2022/12/05 07:58:45;;;;;;;24.08;15.15;;;4.30;99.90;;;;;;5078723;28;20499;-59
2022/12/05 08:01:23;;;;;;;24.60;14.77;;;4.30;99.90;;;;;;5080532;28;20618;-58
2022/12/05 08:03:50;;;;;;;25.52;16.30;;;4.30;99.90;;;;;;5079719;28;20094;-58
2022/12/05 08:06:19;;;;;;;21.40;14.05;;;4.30;99.90;;;;;;5074729;28;20523;-60
2022/12/05 08:08:48;;;;;;;22.50;13.57;;;4.30;99.90;;;;;;5077107;28;20123;-60
2022/12/05 08:11:18;;;;;;;25.52;14.18;;;4.30;99.90;;;;;;5077992;28;20055;-58
2022/12/05 08:13:44;;;;;;;26.52;14.38;;;4.30;99.90;;;;;;5079521;28;20165;-61
2022/12/05 08:16:16;;;;;;;21.50;14.20;;;4.30;99.90;;;;;;5074967;28;20078;-57
2022/12/05 08:18:42;;;;;;;20.23;12.85;;;4.30;99.90;;;;;;5074496;28;20032;-58
2022/12/05 08:21:16;;;;;;;18.80;13.07;;;4.30;99.90;;;;;;5076839;28;20029;-58
2022/12/05 08:23:43;;;;;;;25.45;16.17;;;4.30;99.90;;;;;;5079449;28;20025;-58
2022/12/05 08:26:13;;;;;;;23.98;13.82;;;4.30;99.90;;;;;;5079492;28;20040;-59
2022/12/05 08:28:39;;;;;;;22.35;14.27;;;4.30;99.90;;;;;;5075197;28;20023;-58
2022/12/05 08:31:06;;;;;;;21.83;12.07;;;4.40;99.90;;;;;;5080780;28;20059;-59
2022/12/05 08:33:32;;;;;;;24.40;14.40;;;4.40;99.90;;;;;;5077937;28;20035;-59
2022/12/05 08:36:07;;;;;;;25.65;13.85;;;4.40;99.90;;;;;;5074067;28;20037;-57
2022/12/05 08:38:33;;;;;;;22.60;13.93;;;4.40;99.90;;;;;;5078044;28;20029;-59
2022/12/05 08:41:08;;;;;;;23.20;14.35;;;4.40;99.90;;;;;;5075808;28;20500;-58
2022/12/05 08:43:34;;;;;;;23.45;14.00;;;4.40;99.90;;;;;;5079388;28;20107;-57
2022/12/05 08:46:01;;;;;;;24.13;13.98;;;4.40;99.90;;;;;;5078033;28;20024;-58
2022/12/05 08:48:28;;;;;;;23.05;14.82;;;4.40;99.90;;;;;;5077733;28;20032;-59
2022/12/05 08:50:54;;;;;;;26.75;13.93;;;4.40;99.90;;;;;;5079393;28;20032;-57
2022/12/05 08:53:20;;;;;;;24.48;13.30;;;4.40;99.90;;;;;;5081768;28;20085;-57
2022/12/05 08:55:46;;;;;;;24.02;13.45;;;4.40;99.90;;;;;;5077993;28;20066;-58
2022/12/05 08:58:12;;;;;;;22.30;13.20;;;4.40;99.90;;;;;;5077412;28;20114;-58
2022/12/05 09:00:38;;;;;;;27.02;13.90;;;4.40;99.90;;;;;;5078724;28;20036;-59
2022/12/05 09:03:04;;;;;;;22.83;13.77;;;4.40;99.90;;;;;;5072421;28;20032;-58
2022/12/05 09:05:29;;;;;;;24.00;13.60;;;4.40;99.90;;;;;;5080063;28;20059;-60
2022/12/05 09:07:55;;;;;;;27.02;14.00;;;4.40;99.90;;;;;;5082497;28;20083;-58
2022/12/05 09:10:21;;;;;;;23.77;15.05;;;4.40;99.90;;;;;;5069764;28;20055;-58
2022/12/05 09:12:49;;;;;;;22.35;13.23;;;4.40;99.90;;;;;;5076637;28;20025;-58
2022/12/05 09:15:15;;;;;;;21.05;13.73;;;4.30;99.90;;;;;;5079069;28;20439;-58
2022/12/05 09:17:40;;;;;;;25.58;14.18;;;4.40;99.90;;;;;;5079137;28;20536;-58
2022/12/05 09:20:07;;;;;;;21.38;14.65;;;4.40;99.90;;;;;;5078993;28;20012;-59
2022/12/05 09:22:33;;;;;;;26.65;13.32;;;4.40;99.90;;;;;;5076787;28;20056;-59
2022/12/05 09:24:59;;;;;;;26.17;13.70;;;4.40;99.90;;;;;;5075380;28;20066;-59
2022/12/05 09:27:27;;;;;;;30.63;15.43;;;4.30;99.90;;;;;;5074225;28;20079;-58
2022/12/05 09:29:53;;;;;;;29.75;14.95;;;4.40;99.90;;;;;;5072313;28;20186;-59
2022/12/05 09:32:19;;;;;;;26.00;14.27;;;4.40;99.90;;;;;;5073946;28;20128;-59
2022/12/05 09:34:44;;;;;;;29.50;16.73;;;4.40;99.90;;;;;;5074567;28;20456;-60
2022/12/05 09:37:10;;;;;;;19.40;12.63;;;4.40;99.90;;;;;;5079615;28;20016;-58
2022/12/05 09:39:36;;;;;;;26.75;14.25;;;4.40;99.90;;;;;;5074226;28;20493;-58
2022/12/05 09:42:22;;;;;;;26.02;14.90;;;4.40;99.90;;;;;;5072032;28;20039;-57
2022/12/05 09:45:13;;;;;;;19.17;13.45;;;4.40;99.90;;;;;;5074213;28;20039;-60
2022/12/05 09:47:55;;;;;;;25.48;13.57;;;4.40;99.90;;;;;;5071112;28;20074;-58
2022/12/05 09:50:22;;;;;;;27.88;15.07;;;4.40;99.90;;;;;;5074800;28;20032;-58
2022/12/05 09:53:02;;;;;;;25.60;13.98;;;4.40;99.90;;;;;;5076225;28;20035;-58
2022/12/05 09:55:59;;;;;;;32.38;16.25;;;4.30;99.90;;;;;;5076685;28;20028;-58
2022/12/05 09:58:43;;;;;;;27.58;15.85;;;4.30;99.90;;;;;;5077014;28;20024;-58
2022/12/05 10:01:23;;;;;;;35.72;18.52;;;4.20;99.90;;;;;;5073854;28;20032;-59
2022/12/05 10:04:33;;;;;;;35.53;19.37;;;4.20;99.90;;;;;;5077304;28;20037;-59
2022/12/05 10:07:14;;;;;;;43.42;19.73;;;4.20;99.90;;;;;;5055851;28;20274;-59
2022/12/05 10:09:45;;;;;;;46.17;21.87;;;4.10;99.90;;;;;;5073910;28;20496;-58
2022/12/05 10:12:29;;;;;;;40.83;19.80;;;4.10;99.90;;;;;;5073190;28;20041;-58
2022/12/05 10:15:19;;;;;;;52.63;20.95;;;4.10;99.90;;;;;;5078499;28;20045;-58
2022/12/05 10:17:59;;;;;;;49.65;20.92;;;4.10;99.90;;;;;;5078753;28;20517;-58
2022/12/05 10:20:31;;;;;;;46.03;20.85;;;4.10;99.90;;;;;;5062047;28;20085;-58
2022/12/05 10:23:27;;;;;;;53.03;21.27;;;4.10;99.90;;;;;;5077890;28;20036;-57
2022/12/05 10:25:58;;;;;;;51.20;21.40;;;4.10;99.90;;;;;;5073711;28;20085;-58
2022/12/05 10:28:51;;;;;;;46.03;22.02;;;4.10;99.90;;;;;;5077263;28;20039;-60
2022/12/05 10:31:24;;;;;;;41.05;19.20;;;4.10;99.90;;;;;;5073842;28;20139;-58
2022/12/05 10:34:15;;;;;;;46.03;20.30;;;4.10;99.90;;;;;;5076060;28;20051;-58
2022/12/05 10:36:52;;;;;;;39.65;19.77;;;4.10;99.90;;;;;;5076216;28;20074;-58
2022/12/05 10:39:18;;;;;;;40.88;20.45;;;4.10;99.90;;;;;;5080425;28;20751;-58
2022/12/05 10:41:43;;;;;;;40.95;19.60;;;4.10;99.90;;;;;;5079155;28;20488;-59
2022/12/05 10:44:09;;;;;;;36.25;18.50;;;4.10;99.90;;;;;;5076001;28;20047;-58
2022/12/05 10:46:35;;;;;;;46.33;20.55;;;4.10;99.90;;;;;;5076853;28;20154;-59
2022/12/05 10:49:01;;;;;;;39.05;17.27;;;4.10;99.90;;;;;;5077462;28;20536;-58
2022/12/05 10:51:28;;;;;;;39.35;17.23;;;4.10;99.90;;;;;;5080526;28;20036;-58
2022/12/05 10:53:54;;;;;;;32.90;17.80;;;4.10;99.90;;;;;;5082830;28;20134;-57
2022/12/05 10:56:42;;;;;;;37.05;17.80;;;4.10;99.90;;;;;;5078394;28;20040;-57
2022/12/05 10:59:14;;;;;;;33.42;16.63;;;4.10;99.90;;;;;;5080192;28;20036;-58
2022/12/05 11:01:45;;;;;;;36.90;17.58;;;4.10;99.90;;;;;;5076230;28;20099;-58
2022/12/05 11:04:30;;;;;;;28.60;16.02;;;4.20;99.90;;;;;;5075628;28;20076;-58
2022/12/05 11:07:01;;;;;;;32.45;17.25;;;4.30;99.90;;;;;;5078576;28;20073;-59
2022/12/05 11:09:28;;;;;;;;;;;4.30;99.90;;;;;;5080035;28;20056;-58
2022/12/05 11:12:19;;;;;;;34.00;17.02;;;4.40;99.90;;;;;;5079951;28;20299;-57
2022/12/05 11:15:05;;;;;;;27.63;16.70;;;4.60;99.90;;;;;;5066353;28;20040;-59
2022/12/05 11:17:34;;;;;;;21.75;14.38;;;4.60;99.90;;;;;;5077731;28;20029;-58
2022/12/05 11:20:00;;;;;;;23.20;14.50;;;4.70;99.90;;;;;;5082751;28;20040;-58
2022/12/05 11:22:33;;;;;;;20.27;13.07;;;4.70;99.90;;;;;;5079396;28;20396;-57
2022/12/05 11:25:00;;;;;;;20.27;12.98;;;4.70;99.90;;;;;;5080775;28;20031;-59
2022/12/05 11:27:30;;;;;;;20.40;12.95;;;4.70;99.90;;;;;;5080725;28;20104;-59
2022/12/05 11:30:27;;;;;;;19.55;13.15;;;4.70;99.90;;;;;;5077772;28;20037;-58
2022/12/05 11:33:19;;;;;;;21.27;12.90;;;4.70;99.90;;;;;;5069974;28;20039;-59
2022/12/05 11:35:45;;;;;;;;;;;4.70;99.90;;;;;;5096305;28;20062;-58
2022/12/05 11:38:11;;;;;;;55.53;19.52;;;4.70;99.90;;;;;;5077239;28;19936;-59
2022/12/05 11:40:57;;;;;;;19.83;13.88;;;4.70;99.90;;;;;;5081878;28;20012;-57
2022/12/05 11:43:38;;;;;;;20.27;13.45;;;4.60;99.90;;;;;;5077759;28;20345;-59
2022/12/05 11:46:18;;;;;;;27.65;14.45;;;4.60;99.90;;;;;;5080052;28;20028;-59
2022/12/05 11:48:53;;;;;;;31.15;15.15;;;4.60;99.90;;;;;;5082141;28;20025;-58
2022/12/05 11:51:42;;;;;;;27.05;14.23;;;4.60;99.90;;;;;;5073436;28;20090;-58
2022/12/05 11:54:51;;;;;;;25.25;14.93;;;4.60;99.90;;;;;;5076581;28;20029;-58
2022/12/05 11:57:43;;;;;;;24.33;15.35;;;4.60;99.90;;;;;;5074523;28;20032;-60
2022/12/05 12:00:16;;;;;;;25.08;14.10;;;4.70;99.90;;;;;;5080879;28;20028;-57
2022/12/05 12:02:42;;;;;;;21.77;13.95;;;4.60;99.90;;;;;;5079500;28;20170;-58
2022/12/05 12:05:08;;;;;;;23.40;12.75;;;4.60;99.90;;;;;;5073229;28;20115;-57
2022/12/05 12:07:39;;;;;;;21.55;12.75;;;4.60;99.90;;;;;;5078657;28;20028;-59
2022/12/05 12:10:35;;;;;;;17.20;12.02;;;4.60;99.90;;;;;;5079596;28;20542;-59
2022/12/05 12:13:22;;;;;;;17.35;11.05;;;4.60;99.90;;;;;;5079863;28;20078;-58
2022/12/05 12:16:18;;;;;;;19.52;10.85;;;4.50;99.90;;;;;;5076232;28;20045;-58
2022/12/05 12:19:14;;;;;;;17.88;10.38;;;4.50;99.90;;;;;;5078303;28;20054;-58
2022/12/05 12:21:42;;;;;;;18.15;11.98;;;4.50;99.90;;;;;;5069837;28;20112;-58
2022/12/05 12:24:32;;;;;;;19.70;12.13;;;4.40;99.90;;;;;;5077579;28;20432;-60
2022/12/05 12:27:31;;;;;;;13.88;10.60;;;4.40;99.90;;;;;;5077501;28;20032;-58
2022/12/05 12:30:04;;;;;;;15.65;10.52;;;4.40;99.90;;;;;;5079078;28;20033;-59
2022/12/05 12:32:49;;;;;;;20.15;12.30;;;4.40;99.90;;;;;;5076281;28;20029;-57
2022/12/05 12:35:35;;;;;;;18.67;11.15;;;4.40;99.90;;;;;;5076474;28;20403;-58
2022/12/05 12:38:25;;;;;;;17.13;12.23;;;4.40;99.90;;;;;;5081436;28;20048;-62
2022/12/05 12:40:54;;;;;;;22.77;12.63;;;4.40;99.90;;;;;;5076053;28;20043;-58
2022/12/05 12:44:05;;;;;;;24.45;13.20;;;4.40;99.90;;;;;;5076419;28;20035;-59
2022/12/05 12:46:39;;;;;;;20.40;13.38;;;4.40;99.90;;;;;;5076216;28;20480;-59
2022/12/05 12:49:46;;;;;;;17.83;13.05;;;4.40;99.90;;;;;;5080276;28;20027;-59
2022/12/05 12:52:16;;;;;;;20.55;11.48;;;4.40;99.90;;;;;;5040150;28;20037;-59
2022/12/05 12:54:47;;;;;;;18.60;12.63;;;4.40;99.90;;;;;;5071471;28;20519;-59
2022/12/05 12:57:19;;;;;;;23.35;12.52;;;4.40;99.90;;;;;;5075041;28;20069;-59
2022/12/05 13:00:10;;;;;;;21.63;12.90;;;4.40;99.90;;;;;;5079797;28;20038;-58
2022/12/05 13:02:45;;;;;;;22.88;12.82;;;4.30;99.90;;;;;;5075820;28;20047;-57
2022/12/05 13:05:37;;;;;;;25.58;13.10;;;4.30;99.90;;;;;;5079485;28;20032;-59